sensor_id;sensor_type;location;lat;lon;timestamp;P1;durP1;ratioP1;P2;durP2;ratioP2
65077;SDS011;51672;51.230;-2.322;2022-07-18T00:00:33;7.00;;;3.28;;
65077;SDS011;51672;51.230;-2.322;2022-07-18T00:04:15;6.73;;;3.20;;
65077;SDS011;51672;51.230;-2.322;2022-07-18T00:07:58;8.88;;;4.20;;
65077;SDS011;51672;51.230;-2.322;2022-07-18T00:11:40;5.82;;;2.70;;
65077;SDS011;51672;51.230;-2.322;2022-07-18T00:15:22;10.30;;;2.53;;
65077;SDS011;51672;51.230;-2.322;2022-07-18T00:19:04;6.78;;;3.15;;
65077;SDS011;51672;51.230;-2.322;2022-07-18T00:22:47;7.18;;;2.90;;
65077;SDS011;51672;51.230;-2.322;2022-07-18T00:26:29;8.23;;;2.65;;
65077;SDS011;51672;51.230;-2.322;2022-07-18T00:30:11;4.78;;;2.17;;
65077;SDS011;51672;51.230;-2.322;2022-07-18T00:33:54;7.38;;;2.85;;
65077;SDS011;51672;51.230;-2.322;2022-07-18T00:37:36;6.53;;;2.38;;
65077;SDS011;51672;51.230;-2.322;2022-07-18T00:41:18;6.27;;;2.40;;
65077;SDS011;51672;51.230;-2.322;2022-07-18T00:45:00;5.78;;;2.63;;
65077;SDS011;51672;51.230;-2.322;2022-07-18T00:48:42;5.97;;;2.58;;
65077;SDS011;51672;51.230;-2.322;2022-07-18T00:52:24;6.57;;;2.63;;
65077;SDS011;51672;51.230;-2.322;2022-07-18T00:56:07;7.15;;;2.75;;
65077;SDS011;51672;51.230;-2.322;2022-07-18T00:59:49;5.65;;;2.70;;
65077;SDS011;51672;51.230;-2.322;2022-07-18T01:03:50;7.45;;;2.78;;
65077;SDS011;51672;51.230;-2.322;2022-07-18T01:07:33;7.65;;;3.10;;
65077;SDS011;51672;51.230;-2.322;2022-07-18T01:11:16;5.55;;;2.53;;
65077;SDS011;51672;51.230;-2.322;2022-07-18T01:14:58;7.47;;;2.78;;
65077;SDS011;51672;51.230;-2.322;2022-07-18T01:18:45;7.83;;;2.90;;
65077;SDS011;51672;51.230;-2.322;2022-07-18T01:22:31;8.48;;;3.28;;
65077;SDS011;51672;51.230;-2.322;2022-07-18T01:26:13;6.30;;;2.38;;
65077;SDS011;51672;51.230;-2.322;2022-07-18T01:29:57;5.07;;;2.47;;
65077;SDS011;51672;51.230;-2.322;2022-07-18T01:33:40;6.75;;;2.65;;
65077;SDS011;51672;51.230;-2.322;2022-07-18T01:37:22;7.43;;;2.50;;
65077;SDS011;51672;51.230;-2.322;2022-07-18T01:41:04;7.53;;;2.45;;
65077;SDS011;51672;51.230;-2.322;2022-07-18T01:44:46;6.20;;;2.95;;
65077;SDS011;51672;51.230;-2.322;2022-07-18T01:48:28;6.72;;;3.03;;
65077;SDS011;51672;51.230;-2.322;2022-07-18T01:52:10;5.25;;;2.38;;
65077;SDS011;51672;51.230;-2.322;2022-07-18T01:55:53;7.80;;;2.60;;
65077;SDS011;51672;51.230;-2.322;2022-07-18T01:59:35;5.07;;;2.15;;
65077;SDS011;51672;51.230;-2.322;2022-07-18T02:03:17;6.93;;;2.30;;
65077;SDS011;51672;51.230;-2.322;2022-07-18T02:06:59;6.90;;;2.87;;
65077;SDS011;51672;51.230;-2.322;2022-07-18T02:10:41;5.10;;;2.38;;
65077;SDS011;51672;51.230;-2.322;2022-07-18T02:14:23;5.35;;;2.47;;
65077;SDS011;51672;51.230;-2.322;2022-07-18T02:18:05;5.57;;;2.40;;
65077;SDS011;51672;51.230;-2.322;2022-07-18T02:21:47;5.85;;;2.22;;
65077;SDS011;51672;51.230;-2.322;2022-07-18T02:25:29;6.38;;;2.47;;
65077;SDS011;51672;51.230;-2.322;2022-07-18T02:29:11;8.00;;;2.38;;
65077;SDS011;51672;51.230;-2.322;2022-07-18T02:32:52;5.77;;;2.23;;
65077;SDS011;51672;51.230;-2.322;2022-07-18T02:36:37;5.55;;;2.42;;
65077;SDS011;51672;51.230;-2.322;2022-07-18T02:40:19;5.57;;;2.10;;
65077;SDS011;51672;51.230;-2.322;2022-07-18T02:44:01;6.97;;;2.47;;
65077;SDS011;51672;51.230;-2.322;2022-07-18T02:47:44;4.85;;;2.08;;
65077;SDS011;51672;51.230;-2.322;2022-07-18T02:51:26;7.47;;;2.92;;
65077;SDS011;51672;51.230;-2.322;2022-07-18T02:55:09;5.72;;;2.15;;
65077;SDS011;51672;51.230;-2.322;2022-07-18T02:58:52;5.50;;;2.33;;
65077;SDS011;51672;51.230;-2.322;2022-07-18T03:02:34;5.38;;;2.05;;
65077;SDS011;51672;51.230;-2.322;2022-07-18T03:06:16;5.50;;;2.30;;
65077;SDS011;51672;51.230;-2.322;2022-07-18T03:09:58;6.43;;;2.07;;
65077;SDS011;51672;51.230;-2.322;2022-07-18T03:13:40;6.57;;;2.40;;
65077;SDS011;51672;51.230;-2.322;2022-07-18T03:17:22;5.05;;;2.05;;
65077;SDS011;51672;51.230;-2.322;2022-07-18T03:21:04;9.10;;;2.87;;
65077;SDS011;51672;51.230;-2.322;2022-07-18T03:24:46;7.97;;;2.63;;
65077;SDS011;51672;51.230;-2.322;2022-07-18T03:28:28;6.18;;;2.83;;
65077;SDS011;51672;51.230;-2.322;2022-07-18T03:32:10;7.15;;;2.70;;
65077;SDS011;51672;51.230;-2.322;2022-07-18T03:35:52;6.40;;;2.33;;
65077;SDS011;51672;51.230;-2.322;2022-07-18T03:39:34;6.45;;;2.67;;
65077;SDS011;51672;51.230;-2.322;2022-07-18T03:43:16;5.32;;;2.42;;
65077;SDS011;51672;51.230;-2.322;2022-07-18T03:46:58;6.40;;;2.53;;
65077;SDS011;51672;51.230;-2.322;2022-07-18T03:50:40;6.78;;;2.60;;
65077;SDS011;51672;51.230;-2.322;2022-07-18T03:54:22;5.70;;;2.70;;
65077;SDS011;51672;51.230;-2.322;2022-07-18T03:58:04;5.63;;;2.30;;
65077;SDS011;51672;51.230;-2.322;2022-07-18T04:01:46;5.60;;;2.38;;
65077;SDS011;51672;51.230;-2.322;2022-07-18T04:05:29;6.80;;;2.60;;
65077;SDS011;51672;51.230;-2.322;2022-07-18T04:09:11;6.15;;;2.35;;
65077;SDS011;51672;51.230;-2.322;2022-07-18T04:12:53;5.93;;;2.45;;
65077;SDS011;51672;51.230;-2.322;2022-07-18T04:16:36;7.65;;;3.05;;
65077;SDS011;51672;51.230;-2.322;2022-07-18T04:20:19;5.93;;;2.33;;
65077;SDS011;51672;51.230;-2.322;2022-07-18T04:24:01;6.50;;;2.20;;
65077;SDS011;51672;51.230;-2.322;2022-07-18T04:27:44;7.10;;;2.60;;
65077;SDS011;51672;51.230;-2.322;2022-07-18T04:31:26;6.10;;;2.20;;
65077;SDS011;51672;51.230;-2.322;2022-07-18T04:35:08;4.97;;;2.13;;
65077;SDS011;51672;51.230;-2.322;2022-07-18T04:38:52;6.72;;;2.63;;
65077;SDS011;51672;51.230;-2.322;2022-07-18T04:42:34;7.75;;;2.22;;
65077;SDS011;51672;51.230;-2.322;2022-07-18T04:46:16;5.75;;;2.45;;
65077;SDS011;51672;51.230;-2.322;2022-07-18T04:49:58;7.32;;;2.50;;
65077;SDS011;51672;51.230;-2.322;2022-07-18T04:53:40;5.97;;;2.28;;
65077;SDS011;51672;51.230;-2.322;2022-07-18T04:57:22;5.30;;;2.13;;
65077;SDS011;51672;51.230;-2.322;2022-07-18T05:01:04;8.30;;;3.00;;
65077;SDS011;51672;51.230;-2.322;2022-07-18T05:04:46;7.18;;;3.28;;
65077;SDS011;51672;51.230;-2.322;2022-07-18T05:08:28;9.23;;;2.90;;
65077;SDS011;51672;51.230;-2.322;2022-07-18T05:12:10;7.70;;;3.13;;
65077;SDS011;51672;51.230;-2.322;2022-07-18T05:15:52;7.68;;;3.28;;
65077;SDS011;51672;51.230;-2.322;2022-07-18T05:19:43;6.40;;;2.80;;
65077;SDS011;51672;51.230;-2.322;2022-07-18T05:23:25;8.30;;;3.30;;
65077;SDS011;51672;51.230;-2.322;2022-07-18T05:27:07;8.68;;;3.78;;
65077;SDS011;51672;51.230;-2.322;2022-07-18T05:30:59;8.20;;;3.55;;
65077;SDS011;51672;51.230;-2.322;2022-07-18T05:34:41;8.30;;;3.25;;
65077;SDS011;51672;51.230;-2.322;2022-07-18T05:38:23;6.40;;;3.30;;
65077;SDS011;51672;51.230;-2.322;2022-07-18T05:46:17;8.18;;;3.55;;
65077;SDS011;51672;51.230;-2.322;2022-07-18T05:53:50;9.13;;;3.28;;
65077;SDS011;51672;51.230;-2.322;2022-07-18T05:57:32;7.20;;;3.08;;
65077;SDS011;51672;51.230;-2.322;2022-07-18T06:01:25;10.88;;;3.95;;
65077;SDS011;51672;51.230;-2.322;2022-07-18T06:05:08;6.97;;;3.53;;
65077;SDS011;51672;51.230;-2.322;2022-07-18T06:13:18;9.95;;;4.63;;
65077;SDS011;51672;51.230;-2.322;2022-07-18T06:17:11;6.23;;;3.40;;
65077;SDS011;51672;51.230;-2.322;2022-07-18T06:20:53;8.27;;;3.58;;
65077;SDS011;51672;51.230;-2.322;2022-07-18T06:24:35;8.15;;;3.92;;
65077;SDS011;51672;51.230;-2.322;2022-07-18T06:28:26;6.63;;;4.20;;
65077;SDS011;51672;51.230;-2.322;2022-07-18T06:32:09;7.25;;;3.80;;
65077;SDS011;51672;51.230;-2.322;2022-07-18T06:35:52;5.80;;;3.13;;
65077;SDS011;51672;51.230;-2.322;2022-07-18T06:39:42;7.15;;;3.88;;
65077;SDS011;51672;51.230;-2.322;2022-07-18T06:43:24;7.00;;;3.43;;
65077;SDS011;51672;51.230;-2.322;2022-07-18T06:47:06;8.50;;;3.63;;
65077;SDS011;51672;51.230;-2.322;2022-07-18T06:55:02;7.67;;;2.90;;
65077;SDS011;51672;51.230;-2.322;2022-07-18T06:58:54;7.15;;;3.30;;
65077;SDS011;51672;51.230;-2.322;2022-07-18T07:02:40;9.35;;;3.83;;
65077;SDS011;51672;51.230;-2.322;2022-07-18T07:06:23;6.80;;;3.20;;
65077;SDS011;51672;51.230;-2.322;2022-07-18T07:10:10;6.13;;;3.25;;
65077;SDS011;51672;51.230;-2.322;2022-07-18T07:13:53;6.85;;;3.90;;
65077;SDS011;51672;51.230;-2.322;2022-07-18T07:17:36;7.00;;;3.47;;
65077;SDS011;51672;51.230;-2.322;2022-07-18T07:21:25;7.43;;;3.30;;
65077;SDS011;51672;51.230;-2.322;2022-07-18T07:25:08;7.00;;;3.75;;
65077;SDS011;51672;51.230;-2.322;2022-07-18T07:28:51;6.05;;;3.63;;
65077;SDS011;51672;51.230;-2.322;2022-07-18T07:32:43;8.63;;;3.63;;
65077;SDS011;51672;51.230;-2.322;2022-07-18T07:36:25;8.18;;;4.55;;
65077;SDS011;51672;51.230;-2.322;2022-07-18T07:40:07;5.88;;;4.03;;
65077;SDS011;51672;51.230;-2.322;2022-07-18T07:43:57;6.20;;;4.13;;
65077;SDS011;51672;51.230;-2.322;2022-07-18T07:47:39;6.60;;;3.40;;
65077;SDS011;51672;51.230;-2.322;2022-07-18T07:51:22;5.55;;;3.70;;
65077;SDS011;51672;51.230;-2.322;2022-07-18T07:55:17;5.68;;;3.72;;
65077;SDS011;51672;51.230;-2.322;2022-07-18T07:58:59;6.00;;;3.73;;
65077;SDS011;51672;51.230;-2.322;2022-07-18T08:06:43;5.80;;;4.25;;
65077;SDS011;51672;51.230;-2.322;2022-07-18T08:10:25;7.23;;;3.80;;
65077;SDS011;51672;51.230;-2.322;2022-07-18T08:14:40;5.75;;;3.50;;
65077;SDS011;51672;51.230;-2.322;2022-07-18T08:22:50;7.13;;;4.03;;
65077;SDS011;51672;51.230;-2.322;2022-07-18T08:27:01;5.45;;;3.20;;
65077;SDS011;51672;51.230;-2.322;2022-07-18T08:35:08;5.28;;;3.10;;
65077;SDS011;51672;51.230;-2.322;2022-07-18T08:42:54;5.30;;;3.03;;
65077;SDS011;51672;51.230;-2.322;2022-07-18T08:47:04;6.55;;;3.17;;
65077;SDS011;51672;51.230;-2.322;2022-07-18T08:50:49;6.57;;;3.50;;
65077;SDS011;51672;51.230;-2.322;2022-07-18T08:58:37;6.32;;;2.78;;
65077;SDS011;51672;51.230;-2.322;2022-07-18T09:10:59;4.60;;;2.90;;
65077;SDS011;51672;51.230;-2.322;2022-07-18T09:18:52;6.23;;;3.87;;
65077;SDS011;51672;51.230;-2.322;2022-07-18T09:26:44;6.72;;;4.70;;
65077;SDS011;51672;51.230;-2.322;2022-07-18T09:34:41;5.55;;;3.03;;
65077;SDS011;51672;51.230;-2.322;2022-07-18T09:42:30;7.53;;;4.43;;
65077;SDS011;51672;51.230;-2.322;2022-07-18T09:50:28;6.20;;;4.20;;
65077;SDS011;51672;51.230;-2.322;2022-07-18T09:58:18;6.28;;;4.45;;
65077;SDS011;51672;51.230;-2.322;2022-07-18T10:06:13;7.38;;;5.72;;
65077;SDS011;51672;51.230;-2.322;2022-07-18T10:14:02;6.53;;;5.88;;
65077;SDS011;51672;51.230;-2.322;2022-07-18T10:21:59;7.53;;;4.73;;
65077;SDS011;51672;51.230;-2.322;2022-07-18T10:30:06;6.47;;;5.60;;
65077;SDS011;51672;51.230;-2.322;2022-07-18T10:34:26;7.80;;;6.37;;
65077;SDS011;51672;51.230;-2.322;2022-07-18T10:51:18;4.83;;;4.03;;
65077;SDS011;51672;51.230;-2.322;2022-07-18T10:59:16;6.78;;;5.05;;
65077;SDS011;51672;51.230;-2.322;2022-07-18T11:07:12;6.18;;;4.00;;
65077;SDS011;51672;51.230;-2.322;2022-07-18T11:22:53;4.47;;;2.78;;
65077;SDS011;51672;51.230;-2.322;2022-07-18T11:30:39;6.83;;;3.27;;
65077;SDS011;51672;51.230;-2.322;2022-07-18T11:34:34;7.57;;;2.63;;
65077;SDS011;51672;51.230;-2.322;2022-07-18T11:38:37;4.82;;;2.80;;
65077;SDS011;51672;51.230;-2.322;2022-07-18T11:46:27;4.97;;;2.47;;
65077;SDS011;51672;51.230;-2.322;2022-07-18T11:58:52;6.32;;;2.45;;
65077;SDS011;51672;51.230;-2.322;2022-07-18T12:11:17;5.73;;;3.47;;
65077;SDS011;51672;51.230;-2.322;2022-07-18T12:19:20;5.40;;;2.40;;
65077;SDS011;51672;51.230;-2.322;2022-07-18T12:23:31;7.40;;;3.30;;
65077;SDS011;51672;51.230;-2.322;2022-07-18T12:31:35;5.25;;;2.15;;
65077;SDS011;51672;51.230;-2.322;2022-07-18T12:44:06;4.22;;;2.13;;
65077;SDS011;51672;51.230;-2.322;2022-07-18T13:05:48;6.30;;;2.97;;
65077;SDS011;51672;51.230;-2.322;2022-07-18T13:09:52;5.35;;;2.45;;
65077;SDS011;51672;51.230;-2.322;2022-07-18T13:13:41;4.17;;;2.47;;
65077;SDS011;51672;51.230;-2.322;2022-07-18T13:17:46;10.63;;;2.55;;
65077;SDS011;51672;51.230;-2.322;2022-07-18T13:25:41;5.73;;;2.40;;
65077;SDS011;51672;51.230;-2.322;2022-07-18T13:33:35;6.82;;;2.78;;
65077;SDS011;51672;51.230;-2.322;2022-07-18T13:37:21;5.67;;;2.80;;
65077;SDS011;51672;51.230;-2.322;2022-07-18T13:41:29;4.68;;;2.35;;
65077;SDS011;51672;51.230;-2.322;2022-07-18T13:49:21;4.47;;;2.28;;
65077;SDS011;51672;51.230;-2.322;2022-07-18T13:53:07;5.17;;;2.90;;
65077;SDS011;51672;51.230;-2.322;2022-07-18T13:57:11;9.20;;;2.80;;
65077;SDS011;51672;51.230;-2.322;2022-07-18T14:01:00;7.43;;;4.68;;
65077;SDS011;51672;51.230;-2.322;2022-07-18T14:05:04;4.03;;;2.17;;
65077;SDS011;51672;51.230;-2.322;2022-07-18T14:22:01;5.45;;;1.98;;
65077;SDS011;51672;51.230;-2.322;2022-07-18T14:25:47;5.05;;;2.53;;
65077;SDS011;51672;51.230;-2.322;2022-07-18T14:29:51;8.23;;;2.83;;
65077;SDS011;51672;51.230;-2.322;2022-07-18T14:33:40;5.23;;;2.70;;
65077;SDS011;51672;51.230;-2.322;2022-07-18T14:37:44;4.35;;;2.55;;
65077;SDS011;51672;51.230;-2.322;2022-07-18T14:41:33;4.45;;;2.42;;
65077;SDS011;51672;51.230;-2.322;2022-07-18T14:45:37;7.00;;;1.80;;
65077;SDS011;51672;51.230;-2.322;2022-07-18T14:49:53;4.97;;;2.25;;
65077;SDS011;51672;51.230;-2.322;2022-07-18T14:53:36;4.13;;;2.00;;
65077;SDS011;51672;51.230;-2.322;2022-07-18T15:01:49;3.88;;;1.42;;
65077;SDS011;51672;51.230;-2.322;2022-07-18T15:05:59;5.97;;;2.22;;
65077;SDS011;51672;51.230;-2.322;2022-07-18T15:18:19;8.40;;;2.58;;
65077;SDS011;51672;51.230;-2.322;2022-07-18T15:26:13;6.23;;;2.33;;
65077;SDS011;51672;51.230;-2.322;2022-07-18T15:38:37;3.73;;;1.97;;
65077;SDS011;51672;51.230;-2.322;2022-07-18T15:51:01;6.35;;;2.38;;
65077;SDS011;51672;51.230;-2.322;2022-07-18T15:54:47;5.40;;;1.77;;
65077;SDS011;51672;51.230;-2.322;2022-07-18T15:58:53;4.05;;;1.80;;
65077;SDS011;51672;51.230;-2.322;2022-07-18T16:11:15;3.65;;;1.80;;
65077;SDS011;51672;51.230;-2.322;2022-07-18T16:19:03;5.23;;;2.20;;
65077;SDS011;51672;51.230;-2.322;2022-07-18T16:27:03;4.10;;;1.70;;
65077;SDS011;51672;51.230;-2.322;2022-07-18T16:34:48;5.00;;;2.00;;
65077;SDS011;51672;51.230;-2.322;2022-07-18T16:38:42;4.30;;;2.07;;
65077;SDS011;51672;51.230;-2.322;2022-07-18T16:42:50;3.67;;;2.03;;
65077;SDS011;51672;51.230;-2.322;2022-07-18T16:50:43;3.50;;;1.60;;
65077;SDS011;51672;51.230;-2.322;2022-07-18T16:58:38;6.50;;;2.15;;
65077;SDS011;51672;51.230;-2.322;2022-07-18T17:11:01;5.43;;;1.85;;
65077;SDS011;51672;51.230;-2.322;2022-07-18T17:14:45;5.05;;;1.60;;
65077;SDS011;51672;51.230;-2.322;2022-07-18T17:18:51;4.90;;;1.67;;
65077;SDS011;51672;51.230;-2.322;2022-07-18T17:26:44;5.18;;;2.40;;
65077;SDS011;51672;51.230;-2.322;2022-07-18T17:30:31;4.97;;;1.60;;
65077;SDS011;51672;51.230;-2.322;2022-07-18T17:34:35;5.50;;;1.77;;
65077;SDS011;51672;51.230;-2.322;2022-07-18T17:42:32;5.13;;;2.20;;
65077;SDS011;51672;51.230;-2.322;2022-07-18T17:54:54;5.05;;;1.95;;
65077;SDS011;51672;51.230;-2.322;2022-07-18T18:02:47;3.63;;;1.63;;
65077;SDS011;51672;51.230;-2.322;2022-07-18T18:10:40;5.07;;;1.53;;
65077;SDS011;51672;51.230;-2.322;2022-07-18T18:14:27;5.13;;;2.00;;
65077;SDS011;51672;51.230;-2.322;2022-07-18T18:18:32;6.00;;;1.38;;
65077;SDS011;51672;51.230;-2.322;2022-07-18T18:26:33;3.70;;;1.50;;
65077;SDS011;51672;51.230;-2.322;2022-07-18T18:34:22;7.18;;;2.22;;
65077;SDS011;51672;51.230;-2.322;2022-07-18T18:38:06;5.37;;;1.60;;
65077;SDS011;51672;51.230;-2.322;2022-07-18T18:42:11;4.60;;;2.10;;
65077;SDS011;51672;51.230;-2.322;2022-07-18T18:50:11;5.97;;;1.97;;
65077;SDS011;51672;51.230;-2.322;2022-07-18T18:57:57;4.07;;;1.98;;
65077;SDS011;51672;51.230;-2.322;2022-07-18T19:05:52;5.68;;;2.15;;
65077;SDS011;51672;51.230;-2.322;2022-07-18T19:09:38;3.80;;;2.10;;
65077;SDS011;51672;51.230;-2.322;2022-07-18T19:13:46;3.90;;;1.70;;
65077;SDS011;51672;51.230;-2.322;2022-07-18T19:17:32;4.73;;;2.27;;
65077;SDS011;51672;51.230;-2.322;2022-07-18T19:21:36;4.68;;;2.13;;
65077;SDS011;51672;51.230;-2.322;2022-07-18T19:29:33;4.13;;;1.77;;
65077;SDS011;51672;51.230;-2.322;2022-07-18T19:37:48;6.32;;;2.25;;
65077;SDS011;51672;51.230;-2.322;2022-07-18T19:41:52;8.27;;;2.63;;
65077;SDS011;51672;51.230;-2.322;2022-07-18T19:49:51;5.32;;;2.10;;
65077;SDS011;51672;51.230;-2.322;2022-07-18T20:02:10;4.78;;;1.95;;
65077;SDS011;51672;51.230;-2.322;2022-07-18T20:05:58;6.72;;;2.22;;
65077;SDS011;51672;51.230;-2.322;2022-07-18T20:10:06;6.97;;;1.80;;
65077;SDS011;51672;51.230;-2.322;2022-07-18T20:22:29;4.03;;;1.80;;
65077;SDS011;51672;51.230;-2.322;2022-07-18T20:26:10;4.57;;;1.70;;
65077;SDS011;51672;51.230;-2.322;2022-07-18T20:29:53;3.50;;;1.70;;
65077;SDS011;51672;51.230;-2.322;2022-07-18T20:33:34;6.03;;;1.90;;
65077;SDS011;51672;51.230;-2.322;2022-07-18T20:37:16;5.70;;;2.10;;
65077;SDS011;51672;51.230;-2.322;2022-07-18T20:40:58;4.75;;;1.80;;
65077;SDS011;51672;51.230;-2.322;2022-07-18T20:44:40;4.03;;;1.87;;
65077;SDS011;51672;51.230;-2.322;2022-07-18T20:48:22;3.97;;;2.03;;
65077;SDS011;51672;51.230;-2.322;2022-07-18T20:52:05;4.00;;;1.77;;
65077;SDS011;51672;51.230;-2.322;2022-07-18T20:55:47;6.17;;;2.20;;
65077;SDS011;51672;51.230;-2.322;2022-07-18T20:59:29;6.28;;;2.13;;
65077;SDS011;51672;51.230;-2.322;2022-07-18T21:03:11;4.55;;;1.55;;
65077;SDS011;51672;51.230;-2.322;2022-07-18T21:06:53;9.33;;;2.10;;
65077;SDS011;51672;51.230;-2.322;2022-07-18T21:10:35;6.50;;;2.03;;
65077;SDS011;51672;51.230;-2.322;2022-07-18T21:14:18;4.40;;;2.20;;
65077;SDS011;51672;51.230;-2.322;2022-07-18T21:18:18;7.72;;;1.88;;
65077;SDS011;51672;51.230;-2.322;2022-07-18T21:22:01;6.17;;;2.10;;
65077;SDS011;51672;51.230;-2.322;2022-07-18T21:25:50;5.63;;;2.40;;
65077;SDS011;51672;51.230;-2.322;2022-07-18T21:29:33;5.63;;;2.53;;
65077;SDS011;51672;51.230;-2.322;2022-07-18T21:33:15;10.53;;;2.17;;
65077;SDS011;51672;51.230;-2.322;2022-07-18T21:36:57;6.32;;;1.90;;
65077;SDS011;51672;51.230;-2.322;2022-07-18T21:40:38;4.57;;;1.92;;
65077;SDS011;51672;51.230;-2.322;2022-07-18T21:44:20;4.40;;;1.60;;
65077;SDS011;51672;51.230;-2.322;2022-07-18T21:48:02;3.88;;;1.60;;
65077;SDS011;51672;51.230;-2.322;2022-07-18T21:51:45;5.25;;;1.77;;
65077;SDS011;51672;51.230;-2.322;2022-07-18T21:55:27;6.55;;;2.30;;
65077;SDS011;51672;51.230;-2.322;2022-07-18T21:59:09;4.90;;;2.38;;
65077;SDS011;51672;51.230;-2.322;2022-07-18T22:02:51;4.82;;;2.33;;
65077;SDS011;51672;51.230;-2.322;2022-07-18T22:06:33;4.15;;;1.80;;
65077;SDS011;51672;51.230;-2.322;2022-07-18T22:10:15;3.57;;;1.50;;
65077;SDS011;51672;51.230;-2.322;2022-07-18T22:14:01;5.43;;;2.00;;
65077;SDS011;51672;51.230;-2.322;2022-07-18T22:17:44;7.38;;;2.00;;
65077;SDS011;51672;51.230;-2.322;2022-07-18T22:21:26;4.17;;;2.03;;
65077;SDS011;51672;51.230;-2.322;2022-07-18T22:25:09;5.07;;;2.47;;
65077;SDS011;51672;51.230;-2.322;2022-07-18T22:28:51;6.45;;;2.20;;
65077;SDS011;51672;51.230;-2.322;2022-07-18T22:32:34;4.97;;;2.20;;
65077;SDS011;51672;51.230;-2.322;2022-07-18T22:36:16;5.68;;;2.35;;
65077;SDS011;51672;51.230;-2.322;2022-07-18T22:39:58;4.65;;;2.15;;
65077;SDS011;51672;51.230;-2.322;2022-07-18T22:43:40;5.65;;;1.85;;
65077;SDS011;51672;51.230;-2.322;2022-07-18T22:47:22;6.20;;;1.80;;
65077;SDS011;51672;51.230;-2.322;2022-07-18T22:51:03;6.13;;;2.10;;
65077;SDS011;51672;51.230;-2.322;2022-07-18T22:54:45;3.92;;;1.55;;
65077;SDS011;51672;51.230;-2.322;2022-07-18T22:58:27;4.53;;;1.83;;
65077;SDS011;51672;51.230;-2.322;2022-07-18T23:02:09;5.35;;;2.13;;
65077;SDS011;51672;51.230;-2.322;2022-07-18T23:05:51;4.32;;;1.50;;
65077;SDS011;51672;51.230;-2.322;2022-07-18T23:09:35;5.45;;;2.22;;
65077;SDS011;51672;51.230;-2.322;2022-07-18T23:13:17;6.30;;;2.03;;
65077;SDS011;51672;51.230;-2.322;2022-07-18T23:16:59;4.38;;;2.20;;
65077;SDS011;51672;51.230;-2.322;2022-07-18T23:20:41;5.00;;;2.00;;
65077;SDS011;51672;51.230;-2.322;2022-07-18T23:24:23;4.50;;;1.67;;
65077;SDS011;51672;51.230;-2.322;2022-07-18T23:28:06;4.40;;;1.80;;
65077;SDS011;51672;51.230;-2.322;2022-07-18T23:31:48;5.50;;;1.83;;
65077;SDS011;51672;51.230;-2.322;2022-07-18T23:35:30;4.43;;;2.00;;
65077;SDS011;51672;51.230;-2.322;2022-07-18T23:39:12;5.63;;;2.00;;
65077;SDS011;51672;51.230;-2.322;2022-07-18T23:42:54;4.72;;;2.03;;
65077;SDS011;51672;51.230;-2.322;2022-07-18T23:46:36;6.55;;;2.22;;
65077;SDS011;51672;51.230;-2.322;2022-07-18T23:50:18;6.97;;;1.70;;
65077;SDS011;51672;51.230;-2.322;2022-07-18T23:54:00;6.20;;;2.03;;
65077;SDS011;51672;51.230;-2.322;2022-07-18T23:57:42;5.32;;;1.83;;
